Time;durP1;ratioP1;P1;durP2;ratioP2;P2;SDS_P1;SDS_P2;PMS_P1;PMS_P2;Temp;Humidity;BMP_temperature;BMP_pressure;BME280_temperature;BME280_humidity;BME280_pressure;Samples;Min_cycle;Max_cycle;Signal;HPM_P1;HPM_P2
2022/08/05 00:00:52;;;;;;;6.53;6.03;;;26.10;1.00;;;;;;6266232;28;20534;-53
2022/08/05 00:03:55;;;;;;;5.90;5.57;;;26.10;1.00;;;;;;6285349;28;20238;-54
2022/08/05 00:06:59;;;;;;;5.93;5.63;;;26.00;1.00;;;;;;6284937;28;20244;-54
2022/08/05 00:10:22;;;;;;;6.10;5.90;;;26.00;1.00;;;;;;6283415;28;20248;-55
2022/08/05 00:13:31;;;;;;;5.77;5.50;;;25.90;1.00;;;;;;6281130;28;20249;-54
2022/08/05 00:16:41;;;;;;;6.43;6.00;;;25.90;1.00;;;;;;6262082;28;20715;-55
2022/08/05 00:19:55;;;;;;;5.57;5.37;;;25.80;1.00;;;;;;6260924;28;20241;-55
2022/08/05 00:23:04;;;;;;;5.60;5.40;;;25.70;1.00;;;;;;6267105;28;20252;-51
2022/08/05 00:26:15;;;;;;;6.20;5.70;;;25.70;1.00;;;;;;6286147;28;20734;-54
2022/08/05 00:29:20;;;;;;;5.80;5.60;;;25.60;1.00;;;;;;6272011;28;20445;-55
2022/08/05 00:32:27;;;;;;;6.17;5.87;;;25.50;1.00;;;;;;6263061;28;20238;-54
2022/08/05 00:35:30;;;;;;;6.30;6.10;;;25.50;1.00;;;;;;6285605;28;20303;-53
2022/08/05 00:38:35;;;;;;;5.87;5.67;;;25.50;1.00;;;;;;6264720;28;20513;-52
2022/08/05 00:41:38;;;;;;;5.77;5.47;;;25.50;1.00;;;;;;6260739;28;20291;-53
2022/08/05 00:44:55;;;;;;;6.20;6.00;;;25.40;1.00;;;;;;6267130;28;20244;-55
2022/08/05 00:47:58;;;;;;;6.10;5.80;;;25.40;1.00;;;;;;6276995;28;20229;-54
2022/08/05 00:51:07;;;;;;;7.03;6.40;;;25.30;1.00;;;;;;6285437;28;20324;-53
2022/08/05 00:54:30;;;;;;;5.20;5.00;;;25.30;1.00;;;;;;6282245;28;20242;-54
2022/08/05 00:57:33;;;;;;;5.70;5.37;;;25.20;1.00;;;;;;6281423;28;20614;-54
2022/08/05 01:00:57;;;;;;;6.13;5.60;;;25.20;1.00;;;;;;6274010;28;20233;-51
2022/08/05 01:04:00;;;;;;;6.00;5.60;;;25.10;1.00;;;;;;6281827;28;20237;-54
2022/08/05 01:07:03;;;;;;;6.63;6.30;;;25.10;1.00;;;;;;6283274;28;20245;-55
2022/08/05 01:10:10;;;;;;;7.37;6.97;;;25.10;1.00;;;;;;6283806;28;20241;-54
2022/08/05 01:13:24;;;;;;;7.07;6.67;;;25.00;1.00;;;;;;6272173;28;20631;-54
2022/08/05 01:16:52;;;;;;;7.23;6.93;;;25.00;1.00;;;;;;6258597;28;20691;-53
2022/08/05 01:20:06;;;;;;;7.57;7.17;;;25.00;1.00;;;;;;6274712;28;20241;-53
2022/08/05 01:23:17;;;;;;;7.03;6.63;;;24.90;1.00;;;;;;6269860;28;20670;-53
2022/08/05 01:26:39;;;;;;;7.77;7.27;;;24.80;1.00;;;;;;6279610;28;20330;-54
2022/08/05 01:29:46;;;;;;;9.43;8.67;;;24.90;1.00;;;;;;6282549;28;20376;-53
2022/08/05 01:32:52;;;;;;;7.43;7.03;;;24.90;1.00;;;;;;6281459;28;20748;-53
2022/08/05 01:36:01;;;;;;;6.90;6.70;;;24.90;1.00;;;;;;6275972;28;20629;-54
2022/08/05 01:39:04;;;;;;;7.63;7.33;;;24.80;1.00;;;;;;6282690;28;20767;-54
2022/08/05 01:42:14;;;;;;;7.40;7.00;;;24.80;1.00;;;;;;6273581;28;20230;-53
2022/08/05 01:45:20;;;;;;;7.60;7.07;;;24.70;1.00;;;;;;6258699;28;20295;-55
2022/08/05 01:48:24;;;;;;;8.43;7.83;;;24.70;1.00;;;;;;6258238;28;20330;-54
2022/08/05 01:51:31;;;;;;;8.77;8.10;;;24.70;1.00;;;;;;6258423;28;20743;-54
2022/08/05 01:54:37;;;;;;;8.37;7.80;;;24.70;1.00;;;;;;6275283;28;20491;-53
2022/08/05 01:57:50;;;;;;;9.57;7.20;;;24.70;1.00;;;;;;6283342;28;20226;-53
2022/08/05 02:01:17;;;;;;;9.20;7.47;;;24.70;1.00;;;;;;6275968;28;20238;-55
2022/08/05 02:04:32;;;;;;;7.03;6.73;;;24.80;1.00;;;;;;6282847;28;20248;-54
2022/08/05 02:07:38;;;;;;;8.20;7.50;;;24.80;1.00;;;;;;6278725;28;20242;-53
2022/08/05 02:10:45;;;;;;;7.23;6.57;;;24.70;1.00;;;;;;6257581;28;20295;-55
2022/08/05 02:14:00;;;;;;;8.37;7.57;;;24.60;1.00;;;;;;6254835;28;20708;-52
2022/08/05 02:17:10;;;;;;;7.47;6.73;;;24.50;1.00;;;;;;6257878;28;20380;-54
2022/08/05 02:20:42;;;;;;;8.27;7.63;;;24.50;1.00;;;;;;6257851;28;20734;-52
2022/08/05 02:23:53;;;;;;;7.47;6.80;;;24.40;1.00;;;;;;6265862;28;20241;-55
2022/08/05 02:26:59;;;;;;;9.47;7.10;;;24.30;1.00;;;;;;6281310;28;20310;-53
2022/08/05 02:30:13;;;;;;;9.30;7.03;;;24.30;1.00;;;;;;6267371;28;20234;-54
2022/08/05 02:33:21;;;;;;;7.37;6.77;;;24.20;1.00;;;;;;6262603;28;20704;-54
2022/08/05 02:36:42;;;;;;;7.70;6.33;;;24.10;1.00;;;;;;6282245;28;20253;-55
2022/08/05 02:39:47;;;;;;;7.07;6.43;;;24.00;1.00;;;;;;6274218;28;20694;-53
2022/08/05 02:42:55;;;;;;;7.50;6.10;;;24.00;1.00;;;;;;6277571;28;20324;-54
2022/08/05 02:45:59;;;;;;;6.97;6.27;;;23.90;1.00;;;;;;6282090;28;20332;-54
2022/08/05 02:49:06;;;;;;;6.53;5.93;;;23.90;1.00;;;;;;6281713;28;20317;-54
2022/08/05 02:52:16;;;;;;;6.40;5.83;;;23.90;1.00;;;;;;6264609;28;20718;-54
2022/08/05 02:55:33;;;;;;;8.53;6.33;;;23.90;1.00;;;;;;6277895;28;20247;-53
2022/08/05 02:58:58;;;;;;;6.70;6.07;;;23.90;1.00;;;;;;6274725;28;20623;-56
2022/08/05 03:02:02;;;;;;;6.60;6.17;;;23.80;1.00;;;;;;6258184;28;20229;-54
2022/08/05 03:05:09;;;;;;;7.07;6.00;;;23.80;1.00;;;;;;6281169;28;20241;-53
2022/08/05 03:08:14;;;;;;;6.70;6.00;;;23.70;1.00;;;;;;6265500;28;20512;-55
2022/08/05 03:11:20;;;;;;;8.77;5.93;;;23.60;1.00;;;;;;6266432;28;20249;-53
2022/08/05 03:14:43;;;;;;;6.40;5.43;;;23.60;1.00;;;;;;6274074;28;20234;-53
2022/08/05 03:17:47;;;;;;;7.13;5.80;;;23.70;1.00;;;;;;6257780;28;20280;-53
2022/08/05 03:20:57;;;;;;;6.30;5.87;;;23.60;1.00;;;;;;6256973;28;20234;-54
2022/08/05 03:24:01;;;;;;;5.93;5.43;;;23.60;1.00;;;;;;6271659;28;20264;-53
2022/08/05 03:27:05;;;;;;;6.30;5.90;;;23.60;1.00;;;;;;6281924;28;20289;-53
2022/08/05 03:30:10;;;;;;;5.67;5.27;;;23.50;1.00;;;;;;6281700;28;20252;-54
2022/08/05 03:33:13;;;;;;;6.77;6.10;;;23.50;1.00;;;;;;6267722;28;20237;-53
2022/08/05 03:36:18;;;;;;;6.80;5.83;;;23.60;1.00;;;;;;6285269;28;20730;-50
2022/08/05 03:39:32;;;;;;;7.53;6.90;;;23.60;1.00;;;;;;6286803;28;20668;-54
2022/08/05 03:42:55;;;;;;;6.20;5.70;;;23.60;1.00;;;;;;6280688;28;20233;-54
2022/08/05 03:46:00;;;;;;;7.23;6.37;;;23.60;1.00;;;;;;6275719;28;20255;-55
2022/08/05 03:49:03;;;;;;;6.20;5.80;;;23.50;1.00;;;;;;6283264;28;20875;-55
2022/08/05 03:52:11;;;;;;;6.07;5.80;;;23.50;1.00;;;;;;6286021;28;20229;-55
2022/08/05 03:55:39;;;;;;;6.07;5.60;;;23.50;1.00;;;;;;6285481;28;20232;-57
2022/08/05 03:59:06;;;;;;;5.63;5.23;;;23.60;1.00;;;;;;6269579;28;20237;-55
2022/08/05 04:02:12;;;;;;;5.57;5.37;;;23.50;1.00;;;;;;6285381;28;20228;-54
2022/08/05 04:05:19;;;;;;;5.43;5.13;;;23.50;1.00;;;;;;6280180;28;20237;-53
2022/08/05 04:08:29;;;;;;;6.67;6.10;;;23.50;1.00;;;;;;6279561;28;20691;-55
2022/08/05 04:11:39;;;;;;;8.03;5.80;;;23.50;1.00;;;;;;6285024;28;20257;-53
2022/08/05 04:14:52;;;;;;;7.07;6.47;;;23.40;1.00;;;;;;6284773;28;20609;-55
2022/08/05 04:18:02;;;;;;;5.93;5.50;;;23.40;1.00;;;;;;6279609;28;20252;-55
2022/08/05 04:21:06;;;;;;;6.70;5.40;;;23.40;1.00;;;;;;6285603;28;20241;-56
2022/08/05 04:24:14;;;;;;;7.20;6.03;;;23.40;1.00;;;;;;6284446;28;20282;-54
2022/08/05 04:27:24;;;;;;;5.50;5.20;;;23.50;1.00;;;;;;6274509;28;20230;-54
2022/08/05 04:30:45;;;;;;;6.20;5.87;;;23.60;1.00;;;;;;6285194;28;20364;-55
2022/08/05 04:33:49;;;;;;;6.47;6.07;;;23.60;1.00;;;;;;6273717;28;20234;-55
2022/08/05 04:37:12;;;;;;;6.03;5.50;;;23.70;1.00;;;;;;6284037;28;20233;-54
2022/08/05 04:40:16;;;;;;;6.60;5.97;;;23.70;1.00;;;;;;6284046;28;20257;-54
2022/08/05 04:43:21;;;;;;;6.23;5.83;;;23.70;1.00;;;;;;6283666;28;20495;-53
2022/08/05 04:46:27;;;;;;;6.30;5.70;;;23.80;1.00;;;;;;6283655;28;20415;-54
2022/08/05 04:49:30;;;;;;;6.33;5.87;;;23.80;1.00;;;;;;6284321;28;20244;-56
2022/08/05 04:52:53;;;;;;;6.47;5.83;;;24.00;1.00;;;;;;6283411;28;20238;-55
2022/08/05 04:55:59;;;;;;;6.23;5.80;;;24.10;1.00;;;;;;6284479;28;20745;-55
2022/08/05 04:59:22;;;;;;;6.20;5.90;;;24.20;1.00;;;;;;6271929;28;20242;-54
2022/08/05 05:02:42;;;;;;;7.03;6.03;;;24.30;1.00;;;;;;6281204;28;20283;-55
2022/08/05 05:05:45;;;;;;;6.00;5.50;;;24.30;1.00;;;;;;6284477;28;20233;-55
2022/08/05 05:09:08;;;;;;;6.60;5.80;;;24.40;1.00;;;;;;6273609;28;20259;-55
2022/08/05 05:12:17;;;;;;;5.43;5.23;;;24.60;1.00;;;;;;6283946;28;20252;-53
2022/08/05 05:15:21;;;;;;;8.53;5.60;;;24.70;1.00;;;;;;6283219;28;20237;-54
2022/08/05 05:18:44;;;;;;;5.73;5.37;;;24.80;1.00;;;;;;6275732;28;20241;-53
2022/08/05 05:22:07;;;;;;;6.30;5.87;;;24.80;1.00;;;;;;6277231;28;20233;-54
2022/08/05 05:25:27;;;;;;;6.57;5.97;;;24.90;1.00;;;;;;6275391;28;20246;-53
2022/08/05 05:28:43;;;;;;;5.97;5.57;;;24.90;1.00;;;;;;6280816;28;20291;-55
2022/08/05 05:31:47;;;;;;;6.60;6.20;;;25.00;1.00;;;;;;6283903;28;20617;-54
2022/08/05 05:34:52;;;;;;;6.77;6.13;;;25.00;1.00;;;;;;6281319;28;20298;-55
2022/08/05 05:37:59;;;;;;;7.47;6.10;;;25.00;1.00;;;;;;6282617;28;20779;-53
2022/08/05 05:41:04;;;;;;;6.83;6.30;;;25.00;1.00;;;;;;6281607;28;20234;-55
2022/08/05 05:44:11;;;;;;;6.20;5.70;;;25.00;1.00;;;;;;6283092;28;20306;-56
2022/08/05 05:47:34;;;;;;;7.20;6.20;;;25.10;1.00;;;;;;6282613;28;20434;-54
2022/08/05 05:50:57;;;;;;;6.93;6.33;;;25.10;1.00;;;;;;6282993;28;20241;-53
2022/08/05 05:54:17;;;;;;;6.57;6.07;;;25.10;1.00;;;;;;6277038;28;20244;-55
2022/08/05 05:57:21;;;;;;;6.43;5.93;;;25.20;1.00;;;;;;6281789;28;20703;-55
2022/08/05 06:00:26;;;;;;;6.83;6.23;;;25.20;1.00;;;;;;6282179;28;20244;-53
2022/08/05 06:03:37;;;;;;;9.43;6.53;;;25.20;1.00;;;;;;6283219;28;20283;-55
2022/08/05 06:06:59;;;;;;;7.43;6.80;;;25.10;1.00;;;;;;6275955;28;20249;-54
2022/08/05 06:10:03;;;;;;;6.80;5.87;;;25.10;1.00;;;;;;6275675;28;20244;-54
2022/08/05 06:13:12;;;;;;;7.10;6.33;;;25.10;1.00;;;;;;6274514;28;20229;-54
2022/08/05 06:16:16;;;;;;;8.50;6.60;;;25.10;1.00;;;;;;6276598;28;20233;-55
2022/08/05 06:19:32;;;;;;;8.93;5.50;;;25.30;1.00;;;;;;6270640;28;20332;-54
2022/08/05 06:22:37;;;;;;;9.03;5.73;;;25.40;1.00;;;;;;6280425;28;20371;-54
2022/08/05 06:25:44;;;;;;;10.33;6.20;;;25.50;1.00;;;;;;6281229;28;20232;-54
2022/08/05 06:29:06;;;;;;;5.97;5.00;;;25.50;1.00;;;;;;6274607;28;20248;-54
2022/08/05 06:32:29;;;;;;;8.90;5.23;;;25.50;1.00;;;;;;6276212;28;20567;-55
2022/08/05 06:35:32;;;;;;;5.93;5.53;;;25.50;1.00;;;;;;6282583;28;20346;-53
2022/08/05 06:38:55;;;;;;;5.00;4.60;;;25.50;1.00;;;;;;6279410;28;20709;-54
2022/08/05 06:42:00;;;;;;;5.27;4.97;;;25.40;1.00;;;;;;6283419;28;20221;-53
2022/08/05 06:45:06;;;;;;;7.33;5.13;;;25.50;1.00;;;;;;6275803;28;20849;-53
2022/08/05 06:48:12;;;;;;;5.57;4.27;;;25.90;1.00;;;;;;6276282;28;20487;-54
2022/08/05 06:51:34;;;;;;;4.80;4.43;;;26.40;1.00;;;;;;6282638;28;20229;-54
2022/08/05 06:54:42;;;;;;;6.30;4.70;;;26.80;1.00;;;;;;6281070;28;20323;-53
2022/08/05 06:57:53;;;;;;;4.57;4.17;;;27.20;1.00;;;;;;6275332;28;20256;-54
2022/08/05 07:01:06;;;;;;;5.00;4.60;;;27.10;1.00;;;;;;6273766;28;20253;-54
2022/08/05 07:04:10;;;;;;;5.23;4.93;;;26.80;1.00;;;;;;6282514;28;20236;-54
2022/08/05 07:07:17;;;;;;;4.83;4.40;;;26.60;1.00;;;;;;6272726;28;20374;-54
2022/08/05 07:10:40;;;;;;;6.33;4.83;;;26.60;1.00;;;;;;6281768;28;20698;-53
2022/08/05 07:17:22;;;;;;;4.17;3.87;;;26.60;1.00;;;;;;6282297;28;20222;-52
2022/08/05 07:20:46;;;;;;;5.60;4.20;;;26.70;1.00;;;;;;6284626;28;20378;-56
2022/08/05 07:23:49;;;;;;;4.30;4.10;;;26.90;1.00;;;;;;6285443;28;20324;-54
2022/08/05 07:26:54;;;;;;;4.43;4.17;;;27.10;1.00;;;;;;6285704;28;20245;-54
2022/08/05 07:29:57;;;;;;;6.33;4.37;;;27.20;1.00;;;;;;6285977;28;20236;-54
2022/08/05 07:33:20;;;;;;;5.27;3.93;;;27.30;1.00;;;;;;6285455;28;20277;-55
2022/08/05 07:36:41;;;;;;;8.67;4.40;;;27.40;1.00;;;;;;6286464;28;20252;-53
2022/08/05 07:39:44;;;;;;;5.20;4.23;;;27.40;1.00;;;;;;6279194;28;20777;-54
2022/08/05 07:43:06;;;;;;;6.03;3.83;;;27.40;1.00;;;;;;6284114;28;20229;-54
2022/08/05 07:46:22;;;;;;;4.17;3.90;;;27.40;1.00;;;;;;6285404;28;20519;-54
2022/08/05 07:49:27;;;;;;;4.00;3.80;;;27.40;1.00;;;;;;6290395;28;20240;-54
2022/08/05 07:52:31;;;;;;;5.33;4.20;;;27.20;1.00;;;;;;6285334;28;20229;-53
2022/08/05 07:55:34;;;;;;;4.60;4.27;;;27.10;1.00;;;;;;6286904;28;20565;-55
2022/08/05 07:58:57;;;;;;;4.90;4.57;;;26.90;1.00;;;;;;6285525;28;20737;-54
2022/08/05 08:02:01;;;;;;;4.70;4.40;;;26.70;1.00;;;;;;6286089;28;20236;-55
2022/08/05 08:05:05;;;;;;;5.00;4.43;;;26.60;1.00;;;;;;6286784;28;20225;-54
2022/08/05 08:08:09;;;;;;;4.20;3.93;;;26.50;1.00;;;;;;6285099;28;20237;-53
2022/08/05 08:11:14;;;;;;;4.37;4.17;;;26.30;1.00;;;;;;6285790;28;20375;-55
2022/08/05 08:14:17;;;;;;;4.87;4.57;;;26.20;1.00;;;;;;6284854;28;20275;-53
2022/08/05 08:17:21;;;;;;;7.27;3.70;;;26.10;1.00;;;;;;6285558;28;20459;-53
2022/08/05 08:20:26;;;;;;;4.53;4.27;;;26.10;1.00;;;;;;6280406;28;20233;-54
2022/08/05 08:23:50;;;;;;;4.33;4.03;;;26.00;1.00;;;;;;6285346;28;20237;-53
2022/08/05 08:27:07;;;;;;;4.03;3.70;;;25.90;1.00;;;;;;6277249;28;20246;-55
2022/08/05 08:30:11;;;;;;;3.80;3.60;;;26.00;1.00;;;;;;6285075;28;20236;-54
2022/08/05 08:33:34;;;;;;;4.80;4.00;;;26.10;1.00;;;;;;6285290;28;20234;-53
2022/08/05 08:36:39;;;;;;;3.93;3.70;;;26.30;1.00;;;;;;6284728;28;20232;-53
2022/08/05 08:39:59;;;;;;;4.00;3.70;;;26.20;1.00;;;;;;6284664;28;20453;-53
2022/08/05 08:43:06;;;;;;;3.90;3.73;;;26.30;1.00;;;;;;6278392;28;20240;-53
2022/08/05 08:46:31;;;;;;;4.43;3.77;;;26.20;1.00;;;;;;6278599;28;20234;-52
2022/08/05 08:49:36;;;;;;;3.73;3.53;;;26.20;1.00;;;;;;6282047;28;20234;-53
2022/08/05 08:53:03;;;;;;;4.47;4.07;;;26.00;1.00;;;;;;6285418;28;20828;-53
2022/08/05 08:56:16;;;;;;;3.70;3.60;;;25.90;1.00;;;;;;6282078;28;20250;-54
2022/08/05 08:59:22;;;;;;;3.57;3.37;;;25.80;1.00;;;;;;6284244;28;20248;-54
2022/08/05 09:02:29;;;;;;;3.60;3.50;;;25.70;1.00;;;;;;6284734;28;20229;-55
2022/08/05 09:05:32;;;;;;;3.80;3.50;;;25.70;1.00;;;;;;6282027;28;20230;-54
2022/08/05 09:08:55;;;;;;;3.80;3.50;;;25.70;1.00;;;;;;6284040;28;20234;-54
2022/08/05 09:12:01;;;;;;;3.70;3.50;;;25.50;1.00;;;;;;6283782;28;20407;-54
2022/08/05 09:15:22;;;;;;;3.70;3.60;;;25.40;1.00;;;;;;6277046;28;20234;-53
2022/08/05 09:18:27;;;;;;;3.73;3.57;;;25.40;1.00;;;;;;6283374;28;20232;-53
2022/08/05 09:21:31;;;;;;;4.87;4.23;;;25.40;1.00;;;;;;6280115;28;20226;-53
2022/08/05 09:24:58;;;;;;;4.40;4.20;;;25.40;1.00;;;;;;6283428;28;20238;-54
2022/08/05 09:28:14;;;;;;;4.97;3.87;;;25.30;1.00;;;;;;6282971;28;20238;-54
2022/08/05 09:31:23;;;;;;;3.97;3.47;;;25.30;1.00;;;;;;6281576;28;20678;-55
2022/08/05 09:34:50;;;;;;;3.50;3.37;;;25.50;1.00;;;;;;6282751;28;20253;-54
2022/08/05 09:37:55;;;;;;;5.23;4.17;;;25.60;1.00;;;;;;6283915;28;20747;-53
2022/08/05 09:41:18;;;;;;;4.10;3.80;;;25.90;1.00;;;;;;6281302;28;20600;-53
2022/08/05 09:44:35;;;;;;;5.27;3.83;;;26.00;1.00;;;;;;6278962;28;20865;-53
2022/08/05 09:47:41;;;;;;;5.00;4.70;;;26.20;1.00;;;;;;6283692;28;20303;-53
2022/08/05 09:50:59;;;;;;;4.00;3.90;;;26.40;1.00;;;;;;6283448;28;20234;-54
2022/08/05 09:54:05;;;;;;;4.60;3.93;;;26.40;1.00;;;;;;6282822;28;20486;-54
2022/08/05 09:57:08;;;;;;;3.97;3.60;;;26.30;1.00;;;;;;6284261;28;20363;-54
2022/08/05 10:00:27;;;;;;;3.93;3.63;;;26.10;1.00;;;;;;6277165;28;20666;-53
2022/08/05 10:03:33;;;;;;;3.90;3.57;;;26.00;1.00;;;;;;6282300;28;20229;-55
2022/08/05 10:06:57;;;;;;;3.80;3.50;;;25.90;1.00;;;;;;6283581;28;20237;-54
2022/08/05 10:10:01;;;;;;;3.70;3.43;;;25.80;1.00;;;;;;6283056;28;20233;-53
2022/08/05 10:13:27;;;;;;;4.63;3.77;;;25.60;1.00;;;;;;6281472;28;20459;-54
2022/08/05 10:16:51;;;;;;;4.10;3.90;;;25.50;1.00;;;;;;6282035;28;20230;-54
2022/08/05 10:19:55;;;;;;;3.87;3.67;;;25.40;1.00;;;;;;6279248;28;20324;-54
2022/08/05 10:23:14;;;;;;;3.67;3.57;;;25.40;1.00;;;;;;6281826;28;20225;-53
2022/08/05 10:26:36;;;;;;;4.10;3.73;;;25.40;1.00;;;;;;6283174;28;20592;-54
2022/08/05 10:29:52;;;;;;;4.43;4.17;;;25.40;1.00;;;;;;6278770;28;20441;-53
2022/08/05 10:33:17;;;;;;;3.70;3.47;;;25.50;1.00;;;;;;6254758;28;20731;-53
2022/08/05 10:36:20;;;;;;;3.33;3.23;;;25.50;1.00;;;;;;6283092;28;20355;-54
2022/08/05 10:39:31;;;;;;;5.10;4.70;;;25.50;1.00;;;;;;6280981;28;20319;-53
2022/08/05 10:43:00;;;;;;;5.00;4.73;;;25.40;1.00;;;;;;6283199;28;20237;-54
2022/08/05 10:46:05;;;;;;;4.77;4.47;;;25.10;1.00;;;;;;6274752;28;20316;-53
2022/08/05 10:49:10;;;;;;;3.63;3.53;;;25.00;1.00;;;;;;6273678;28;20237;-53
2022/08/05 10:52:39;;;;;;;3.83;3.70;;;24.90;1.00;;;;;;6283918;28;20492;-55
2022/08/05 10:56:03;;;;;;;3.60;3.50;;;24.90;1.00;;;;;;6281081;28;20766;-54
2022/08/05 10:59:28;;;;;;;4.30;4.00;;;24.90;1.00;;;;;;6280403;28;20267;-55
2022/08/05 11:03:11;;;;;;;4.50;4.30;;;24.90;1.00;;;;;;6282258;28;20225;-54
2022/08/05 11:06:29;;;;;;;3.67;3.50;;;24.90;1.00;;;;;;6282417;28;20221;-55
2022/08/05 11:09:43;;;;;;;4.23;3.93;;;24.90;1.00;;;;;;6281620;28;20925;-54
2022/08/05 11:12:48;;;;;;;4.70;3.57;;;25.00;1.00;;;;;;6281420;28;20236;-54
2022/08/05 11:16:22;;;;;;;3.80;3.63;;;25.10;1.00;;;;;;6282023;28;20240;-55
2022/08/05 11:19:47;;;;;;;3.50;3.40;;;25.20;1.00;;;;;;6279318;28;20241;-54
2022/08/05 11:23:38;;;;;;;3.60;3.40;;;25.30;1.00;;;;;;6281735;28;20473;-55
2022/08/05 11:27:30;;;;;;;4.40;4.10;;;25.70;1.00;;;;;;6267634;28;20739;-54
2022/08/05 11:31:26;;;;;;;3.20;3.00;;;26.10;1.00;;;;;;6279867;28;20233;-54
2022/08/05 11:34:49;;;;;;;3.57;3.43;;;26.30;1.00;;;;;;6272866;28;20635;-54
2022/08/05 11:38:03;;;;;;;3.60;3.50;;;26.40;1.00;;;;;;6280708;28;20233;-55
2022/08/05 11:41:27;;;;;;;3.77;3.50;;;26.50;1.00;;;;;;6271740;28;20320;-53
2022/08/05 11:44:55;;;;;;;3.77;3.57;;;26.70;1.00;;;;;;6274303;28;20237;-54
2022/08/05 11:48:08;;;;;;;3.93;3.67;;;26.90;1.00;;;;;;6280948;28;20337;-54
2022/08/05 11:51:14;;;;;;;6.43;5.87;;;27.10;1.00;;;;;;6280203;28;20318;-53
2022/08/05 11:54:39;;;;;;;3.60;3.50;;;27.30;1.00;;;;;;6278022;28;20440;-56
2022/08/05 11:57:46;;;;;;;5.07;4.77;;;27.40;1.00;;;;;;6284238;28;20234;-55
2022/08/05 12:01:12;;;;;;;3.83;3.63;;;27.60;1.00;;;;;;6272903;28;20237;-56
2022/08/05 12:04:21;;;;;;;3.50;3.40;;;27.60;1.00;;;;;;6285767;28;20371;-54
2022/08/05 12:07:34;;;;;;;4.10;4.00;;;27.80;1.00;;;;;;6284573;28;20222;-54
2022/08/05 12:10:59;;;;;;;4.80;4.50;;;27.90;1.00;;;;;;6284891;28;20240;-53
2022/08/05 12:14:08;;;;;;;4.40;4.10;;;27.70;1.00;;;;;;6283350;28;20225;-55
2022/08/05 12:17:14;;;;;;;4.23;3.80;;;27.80;1.00;;;;;;6281278;28;20230;-56
2022/08/05 12:20:38;;;;;;;5.27;5.13;;;27.60;1.00;;;;;;6284504;28;20237;-54
2022/08/05 12:23:52;;;;;;;3.97;3.77;;;27.60;1.00;;;;;;6285539;28;20229;-55
2022/08/05 12:26:55;;;;;;;4.20;4.10;;;27.70;1.00;;;;;;6281611;28;20343;-55
2022/08/05 12:30:00;;;;;;;4.30;4.00;;;27.90;1.00;;;;;;6284116;28;20252;-54
2022/08/05 12:33:06;;;;;;;5.33;4.53;;;28.00;1.00;;;;;;6273414;28;20237;-55
2022/08/05 12:36:30;;;;;;;4.10;3.90;;;28.20;1.00;;;;;;6284468;28;20694;-54
2022/08/05 12:39:33;;;;;;;4.20;4.10;;;28.50;1.00;;;;;;6284531;28;20255;-55
2022/08/05 12:42:40;;;;;;;4.47;4.17;;;28.60;1.00;;;;;;6277661;28;20632;-54
2022/08/05 12:45:53;;;;;;;4.37;4.23;;;28.90;1.00;;;;;;6284069;28;20237;-55
2022/08/05 12:49:02;;;;;;;4.60;4.30;;;29.00;1.00;;;;;;6283396;28;20248;-56
2022/08/05 12:52:17;;;;;;;3.97;3.87;;;29.00;1.00;;;;;;6280369;28;20252;-54
2022/08/05 12:55:31;;;;;;;3.97;3.87;;;29.10;1.00;;;;;;6278689;28;20657;-55
2022/08/05 12:58:37;;;;;;;4.33;3.93;;;29.20;1.00;;;;;;6280133;28;20772;-54
2022/08/05 13:02:00;;;;;;;4.53;4.32;;;29.40;1.00;;;;;;6284148;28;20237;-55
2022/08/05 13:05:11;;;;;;;4.50;4.20;;;29.40;1.00;;;;;;6282230;28;20428;-54
2022/08/05 13:08:18;;;;;;;3.97;3.78;;;29.30;1.00;;;;;;6283082;28;20233;-56
2022/08/05 13:11:22;;;;;;;3.60;3.50;;;29.20;1.00;;;;;;6284163;28;20383;-55
2022/08/05 13:14:47;;;;;;;3.97;3.73;;;29.10;1.00;;;;;;6280946;28;20229;-55
2022/08/05 13:18:09;;;;;;;3.77;3.37;;;29.10;1.00;;;;;;6284131;28;20816;-55
2022/08/05 13:21:13;;;;;;;3.13;3.03;;;28.90;1.00;;;;;;6278355;28;20253;-55
2022/08/05 13:24:16;;;;;;;3.97;3.73;;;28.80;1.00;;;;;;6280921;28;20259;-54
2022/08/05 13:27:41;;;;;;;3.83;3.53;;;28.70;1.00;;;;;;6283599;28;20599;-55
2022/08/05 13:30:44;;;;;;;3.20;3.00;;;28.60;1.00;;;;;;6276642;28;20320;-55
2022/08/05 13:33:50;;;;;;;10.27;3.63;;;28.70;1.00;;;;;;6283520;28;20233;-55
2022/08/05 13:37:14;;;;;;;3.07;2.97;;;28.80;1.00;;;;;;6275030;28;20733;-53
2022/08/05 13:40:29;;;;;;;3.40;3.20;;;29.00;1.00;;;;;;6282092;28;20817;-55
2022/08/05 13:43:51;;;;;;;3.23;3.13;;;29.30;1.00;;;;;;6281391;28;20859;-55
2022/08/05 13:46:56;;;;;;;3.40;3.20;;;29.40;1.00;;;;;;6282217;28;20234;-54
2022/08/05 13:50:10;;;;;;;3.30;3.20;;;29.50;1.00;;;;;;6282888;28;20657;-55
2022/08/05 13:53:19;;;;;;;3.28;3.10;;;29.60;1.00;;;;;;6283778;28;20233;-56
2022/08/05 13:56:22;;;;;;;3.33;3.13;;;29.40;1.00;;;;;;6278116;28;20248;-55
2022/08/05 13:59:25;;;;;;;4.10;3.78;;;29.30;1.00;;;;;;6282424;28;20440;-55
2022/08/05 14:02:32;;;;;;;3.73;3.63;;;29.10;1.00;;;;;;6282609;28;20600;-54
2022/08/05 14:05:35;;;;;;;3.50;3.40;;;29.00;1.00;;;;;;6278470;28;20223;-56
2022/08/05 14:09:00;;;;;;;3.83;3.73;;;28.90;1.00;;;;;;6283034;28;20241;-54
2022/08/05 14:12:03;;;;;;;3.77;3.57;;;28.80;1.00;;;;;;6282623;28;20646;-57
2022/08/05 14:15:27;;;;;;;3.23;3.13;;;28.80;1.00;;;;;;6277179;28;20233;-56
2022/08/05 14:18:50;;;;;;;4.00;3.80;;;28.80;1.00;;;;;;6281476;28;20234;-55
2022/08/05 14:21:53;;;;;;;3.87;3.70;;;28.90;1.00;;;;;;6279085;28;20252;-56
2022/08/05 14:25:16;;;;;;;3.70;3.60;;;29.00;1.00;;;;;;6282186;28;20371;-56
2022/08/05 14:28:23;;;;;;;3.47;3.37;;;29.10;1.00;;;;;;6282162;28;20253;-55
2022/08/05 14:31:29;;;;;;;3.85;3.75;;;29.20;1.00;;;;;;6278731;28;20234;-54
2022/08/05 14:34:52;;;;;;;5.35;4.32;;;29.30;1.00;;;;;;6279685;28;20233;-56
2022/08/05 14:37:56;;;;;;;4.60;4.40;;;29.40;1.00;;;;;;6282396;28;20241;-56
2022/08/05 14:41:05;;;;;;;4.10;3.80;;;29.30;1.00;;;;;;6281703;28;20801;-55
2022/08/05 14:44:09;;;;;;;4.50;4.30;;;29.20;1.00;;;;;;6274797;28;20233;-54
2022/08/05 14:47:23;;;;;;;5.07;4.70;;;28.90;1.00;;;;;;6281041;28;20725;-55
2022/08/05 14:50:46;;;;;;;4.47;4.27;;;28.70;1.00;;;;;;6278855;28;20233;-54
2022/08/05 14:53:51;;;;;;;4.53;4.23;;;28.50;1.00;;;;;;6282225;28;20748;-54
2022/08/05 14:57:15;;;;;;;4.83;4.63;;;28.50;1.00;;;;;;6271022;28;20252;-54
2022/08/05 15:00:20;;;;;;;4.70;4.40;;;28.40;1.00;;;;;;6281011;28;20245;-54
2022/08/05 15:03:31;;;;;;;5.20;4.70;;;28.30;1.00;;;;;;6272562;28;20282;-54
2022/08/05 15:06:36;;;;;;;4.43;4.20;;;28.00;1.00;;;;;;6281981;28;20221;-54
2022/08/05 15:09:39;;;;;;;4.50;4.20;;;27.80;1.00;;;;;;6277130;28;20237;-55
2022/08/05 15:12:58;;;;;;;4.93;4.73;;;27.70;1.00;;;;;;6281873;28;21031;-55
2022/08/05 15:16:06;;;;;;;4.67;4.50;;;27.60;1.00;;;;;;6281229;28;20706;-55
2022/08/05 15:19:14;;;;;;;4.80;4.60;;;27.50;1.00;;;;;;6275527;28;20237;-54
2022/08/05 15:22:25;;;;;;;5.30;4.90;;;27.50;1.00;;;;;;6282451;28;20253;-54
2022/08/05 15:25:30;;;;;;;4.77;4.67;;;27.30;1.00;;;;;;6278658;28;20598;-54
2022/08/05 15:28:54;;;;;;;5.47;5.03;;;27.00;1.00;;;;;;6281660;28;20237;-54
2022/08/05 15:31:58;;;;;;;5.20;4.90;;;26.80;1.00;;;;;;6285148;28;20233;-55
2022/08/05 15:35:08;;;;;;;5.93;5.50;;;26.70;1.00;;;;;;6279192;28;20225;-53
2022/08/05 15:38:14;;;;;;;5.83;5.30;;;26.60;1.00;;;;;;6280693;28;20245;-54
2022/08/05 15:41:37;;;;;;;5.73;5.43;;;26.40;1.00;;;;;;6285664;28;20241;-53
2022/08/05 15:45:01;;;;;;;5.13;4.80;;;26.30;1.00;;;;;;6273519;28;20629;-53
2022/08/05 15:48:08;;;;;;;5.57;5.27;;;26.20;1.00;;;;;;6279664;28;20666;-53
2022/08/05 15:51:21;;;;;;;6.27;5.80;;;26.10;1.00;;;;;;6286788;28;20233;-55
2022/08/05 15:54:44;;;;;;;5.57;5.27;;;26.10;1.00;;;;;;6284348;28;20430;-55
2022/08/05 15:57:48;;;;;;;6.13;5.63;;;26.00;1.00;;;;;;6285881;28;20549;-53
2022/08/05 16:00:52;;;;;;;5.17;4.80;;;26.00;1.00;;;;;;6285171;28;20368;-54
2022/08/05 16:04:15;;;;;;;5.30;5.07;;;25.90;1.00;;;;;;6276737;28;20237;-54
2022/08/05 16:07:20;;;;;;;5.73;5.07;;;25.80;1.00;;;;;;6285780;28;20245;-55
2022/08/05 16:10:24;;;;;;;5.77;5.47;;;25.90;1.00;;;;;;6285656;28;20499;-54
2022/08/05 16:13:30;;;;;;;5.67;5.17;;;25.90;1.00;;;;;;6286255;28;20233;-54
2022/08/05 16:16:38;;;;;;;14.83;5.37;;;25.70;1.00;;;;;;6283916;28;20376;-55
2022/08/05 16:19:42;;;;;;;5.80;5.40;;;25.70;1.00;;;;;;6283457;28;20356;-54
2022/08/05 16:23:05;;;;;;;5.77;5.57;;;25.60;1.00;;;;;;6286318;28;20240;-53
2022/08/05 16:26:11;;;;;;;5.33;5.03;;;25.50;1.00;;;;;;6276214;28;20253;-54
2022/08/05 16:29:14;;;;;;;6.03;5.73;;;25.50;1.00;;;;;;6285621;28;20606;-55
2022/08/05 16:32:23;;;;;;;5.87;5.57;;;25.50;1.00;;;;;;6285750;28;20237;-55
2022/08/05 16:35:31;;;;;;;6.03;5.73;;;25.50;1.00;;;;;;6283554;28;20243;-55
2022/08/05 16:38:44;;;;;;;7.43;6.73;;;25.40;1.00;;;;;;6285166;28;20230;-55
2022/08/05 16:41:56;;;;;;;7.77;7.17;;;25.40;1.00;;;;;;6284810;28;20234;-62
2022/08/05 16:45:18;;;;;;;6.90;6.50;;;25.30;1.00;;;;;;6279397;28;20230;-54
2022/08/05 16:48:43;;;;;;;7.13;6.57;;;25.00;1.00;;;;;;6283022;28;20301;-55
2022/08/05 16:51:46;;;;;;;6.50;6.10;;;24.80;1.00;;;;;;6285843;28;20233;-55
2022/08/05 16:54:56;;;;;;;6.77;6.23;;;24.60;1.00;;;;;;6283366;28;20706;-60
2022/08/05 16:58:00;;;;;;;9.53;5.73;;;24.50;1.00;;;;;;6285746;28;20548;-54